createdAt,value
2018-05-07T00:01:57.542Z,16.50
2018-05-07T00:06:58.569Z,16.38
2018-05-07T00:11:59.572Z,16.37
2018-05-07T00:17:00.601Z,16.37
2018-05-07T00:22:02.172Z,16.28
2018-05-07T00:27:03.148Z,16.34
2018-05-07T00:32:04.122Z,16.16
2018-05-07T00:37:05.238Z,16.16
2018-05-07T00:42:06.206Z,15.77
2018-05-07T00:47:07.167Z,15.56
2018-05-07T00:52:08.140Z,15.90
2018-05-07T00:57:09.098Z,15.81
2018-05-07T01:02:10.076Z,15.76
2018-05-07T01:07:11.073Z,15.71
2018-05-07T01:12:12.458Z,15.73
2018-05-07T01:17:13.719Z,15.65
2018-05-07T01:22:14.888Z,15.51
2018-05-07T01:27:15.990Z,15.56
2018-05-07T01:32:17.081Z,15.51
2018-05-07T01:37:18.156Z,15.65
2018-05-07T01:42:19.109Z,15.32
2018-05-07T01:47:20.387Z,15.61
2018-05-07T01:52:21.380Z,15.42
2018-05-07T01:57:22.335Z,15.70
2018-05-07T02:02:23.278Z,15.32
2018-05-07T02:07:24.272Z,15.35
2018-05-07T02:12:25.218Z,15.33
2018-05-07T02:17:26.172Z,15.23
2018-05-07T02:22:27.123Z,15.53
2018-05-07T02:27:28.071Z,15.33
2018-05-07T02:32:29.050Z,15.22
2018-05-07T02:37:30.000Z,15.21
2018-05-07T02:42:31.016Z,14.90
2018-05-07T02:47:31.980Z,15.13
2018-05-07T02:52:32.913Z,15.20
2018-05-07T02:57:33.881Z,14.94
2018-05-07T03:02:34.816Z,14.70
2018-05-07T03:07:35.827Z,14.53
2018-05-07T03:12:36.793Z,14.86
2018-05-07T03:17:37.813Z,14.89
2018-05-07T03:22:38.707Z,14.83
2018-05-07T03:27:39.658Z,14.73
2018-05-07T03:32:40.626Z,14.81
2018-05-07T03:37:41.608Z,14.76
2018-05-07T03:42:42.593Z,14.71
2018-05-07T03:47:43.546Z,14.76
2018-05-07T03:52:44.482Z,14.56
2018-05-07T03:57:45.430Z,14.61
2018-05-07T04:02:46.369Z,14.64
2018-05-07T04:07:47.396Z,14.58
2018-05-07T04:12:49.178Z,14.71
2018-05-07T04:18:02.320Z,14.74
2018-05-07T04:23:15.640Z,14.99
2018-05-07T04:28:16.579Z,14.69
2018-05-07T04:33:17.532Z,14.81
2018-05-07T04:38:18.510Z,14.66
2018-05-07T04:43:19.547Z,14.75
2018-05-07T04:48:20.468Z,14.87
2018-05-07T04:53:21.433Z,14.72
2018-05-07T04:58:22.409Z,14.61
2018-05-07T05:03:23.378Z,14.80
2018-05-07T05:08:24.363Z,14.87
2018-05-07T05:13:25.352Z,15.37
2018-05-07T05:18:26.288Z,15.74
2018-05-07T05:23:27.239Z,15.76
2018-05-07T05:28:28.204Z,15.47
2018-05-07T05:33:29.159Z,15.55
2018-05-07T05:38:30.099Z,15.66
2018-05-07T05:43:31.063Z,15.59
2018-05-07T05:48:32.017Z,15.67
2018-05-07T05:53:32.990Z,16.03
2018-05-07T05:58:33.965Z,16.14
2018-05-07T06:03:34.941Z,16.11
2018-05-07T06:08:35.937Z,16.49
2018-05-07T06:13:36.900Z,16.51
2018-05-07T06:18:44.749Z,16.77
2018-05-07T06:23:45.716Z,16.79
2018-05-07T06:28:46.682Z,17.18
2018-05-07T06:33:47.635Z,17.07
2018-05-07T06:38:48.593Z,17.28
2018-05-07T06:43:49.589Z,17.44
2018-05-07T06:48:50.592Z,17.41
2018-05-07T06:53:51.552Z,17.60
2018-05-07T06:58:52.519Z,17.63
2018-05-07T07:03:53.488Z,18.06
2018-05-07T07:08:54.647Z,18.26
2018-05-07T07:13:55.639Z,18.26
2018-05-07T07:18:56.596Z,18.32
2018-05-07T07:23:57.592Z,18.60
2018-05-07T07:28:58.563Z,18.89
2018-05-07T07:33:59.617Z,19.22
2018-05-07T07:39:00.525Z,19.44
2018-05-07T07:44:01.528Z,19.49
2018-05-07T07:49:02.505Z,19.28
2018-05-07T07:54:03.471Z,19.43
2018-05-07T07:59:04.445Z,19.74
2018-05-07T08:04:05.449Z,19.72
2018-05-07T08:09:06.470Z,20.14
2018-05-07T08:14:07.465Z,20.29
2018-05-07T08:19:08.422Z,20.25
2018-05-07T08:24:09.396Z,20.34
2018-05-07T08:29:10.381Z,20.52
2018-05-07T08:34:11.377Z,20.67
2018-05-07T08:39:12.336Z,20.71
2018-05-07T08:44:13.713Z,20.65
2018-05-07T08:49:14.688Z,20.70
2018-05-07T08:54:15.668Z,20.79
2018-05-07T08:59:16.651Z,20.82
2018-05-07T09:04:17.636Z,21.57
2018-05-07T09:09:18.682Z,21.42
2018-05-07T09:14:19.651Z,21.43
2018-05-07T09:19:20.632Z,21.64
2018-05-07T09:24:21.612Z,21.45
2018-05-07T09:29:22.624Z,21.81
2018-05-07T09:34:23.611Z,21.70
2018-05-07T09:39:24.578Z,21.55
2018-05-07T09:44:25.532Z,21.65
2018-05-07T09:49:26.493Z,21.90
2018-05-07T09:54:27.481Z,22.12
2018-05-07T09:59:28.472Z,22.11
2018-05-07T10:04:29.481Z,22.46
2018-05-07T10:09:30.515Z,22.78
2018-05-07T10:14:31.467Z,22.63
2018-05-07T10:19:32.453Z,22.20
2018-05-07T10:24:33.391Z,22.22
2018-05-07T10:29:34.331Z,22.87
2018-05-07T10:34:35.312Z,22.83
2018-05-07T10:39:36.279Z,22.95
2018-05-07T10:44:37.274Z,23.42
2018-05-07T10:49:38.260Z,23.49
2018-05-07T10:54:39.224Z,23.41
2018-05-07T10:59:40.189Z,23.49
2018-05-07T11:04:41.152Z,24.11
2018-05-07T11:09:42.195Z,24.32
2018-05-07T11:14:43.165Z,24.17
2018-05-07T11:19:44.154Z,24.54
2018-05-07T11:24:45.164Z,24.74
2018-05-07T11:29:46.144Z,24.98
2018-05-07T11:34:47.114Z,24.35
2018-05-07T11:39:48.097Z,24.70
2018-05-07T11:44:49.078Z,24.77
2018-05-07T11:49:50.055Z,24.64
2018-05-07T11:54:51.038Z,25.59
2018-05-07T11:59:52.026Z,26.31
2018-05-07T12:04:52.982Z,26.04
2018-05-07T12:09:54.001Z,25.86
2018-05-07T12:14:55.012Z,26.53
2018-05-07T12:19:56.231Z,26.88
2018-05-07T12:24:57.213Z,27.02
2018-05-07T12:29:58.168Z,26.88
2018-05-07T12:34:59.154Z,27.41
2018-05-07T12:40:00.121Z,27.40
2018-05-07T12:45:01.116Z,28.03
2018-05-07T12:50:02.098Z,28.04
2018-05-07T12:55:03.075Z,27.96
2018-05-07T13:00:04.084Z,27.93
2018-05-07T13:05:05.071Z,28.06
2018-05-07T13:10:06.149Z,27.81
2018-05-07T13:15:07.130Z,27.60
2018-05-07T13:20:08.130Z,27.42
2018-05-07T13:25:09.076Z,27.72
2018-05-07T13:30:10.032Z,27.64
2018-05-07T13:35:10.995Z,28.05
2018-05-07T13:40:11.957Z,27.31
2018-05-07T13:45:12.948Z,28.76
2018-05-07T13:50:13.949Z,28.56
2018-05-07T13:55:14.928Z,29.32
2018-05-07T14:00:22.754Z,29.75
2018-05-07T14:05:23.774Z,29.73
2018-05-07T14:10:24.794Z,29.06
2018-05-07T14:15:25.742Z,30.10
2018-05-07T14:20:26.723Z,29.67
2018-05-07T14:25:27.702Z,29.36
2018-05-07T14:30:28.662Z,28.13
2018-05-07T14:35:29.636Z,28.72
2018-05-07T14:40:30.594Z,29.23
2018-05-07T14:45:31.608Z,28.92
2018-05-07T14:50:32.574Z,28.58
2018-05-07T14:55:33.545Z,29.71
2018-05-07T15:00:34.505Z,29.29
2018-05-07T15:05:35.555Z,29.89
2018-05-07T15:10:36.603Z,30.04
2018-05-07T15:15:37.939Z,29.23
2018-05-07T15:20:38.903Z,29.20
2018-05-07T15:25:39.912Z,29.54
2018-05-07T15:30:40.920Z,30.20
2018-05-07T15:35:41.904Z,29.70
2018-05-07T15:40:42.894Z,30.01
2018-05-07T15:45:43.926Z,28.80
2018-05-07T15:50:44.934Z,29.28
2018-05-07T15:55:45.903Z,28.91
2018-05-07T16:00:46.877Z,29.54
2018-05-07T16:05:47.860Z,28.76
2018-05-07T16:10:49.011Z,28.42
2018-05-07T16:15:49.934Z,29.16
2018-05-07T16:20:50.950Z,29.18
2018-05-07T16:25:51.941Z,28.15
2018-05-07T16:30:52.989Z,28.43
2018-05-07T16:35:53.965Z,28.47
2018-05-07T16:40:54.942Z,28.19
2018-05-07T16:45:55.922Z,27.73
2018-05-07T16:50:56.953Z,27.97
2018-05-07T16:55:57.943Z,28.12
2018-05-07T17:00:58.939Z,27.89
2018-05-07T17:05:59.926Z,27.95
2018-05-07T17:11:01.017Z,27.72
2018-05-07T17:16:02.027Z,27.93
2018-05-07T17:21:03.025Z,27.69
2018-05-07T17:26:04.076Z,26.84
2018-05-07T17:31:05.077Z,25.95
2018-05-07T17:36:06.121Z,25.34
2018-05-07T17:41:07.124Z,23.96
2018-05-07T17:46:17.214Z,24.74
2018-05-07T17:51:18.233Z,24.68
2018-05-07T17:56:19.243Z,23.93
2018-05-07T18:01:20.228Z,23.19
2018-05-07T18:06:21.273Z,23.30
2018-05-07T18:11:22.337Z,23.30
2018-05-07T18:16:23.358Z,23.10
2018-05-07T18:21:24.361Z,22.51
2018-05-07T18:26:25.455Z,22.71
2018-05-07T18:31:26.421Z,22.60
2018-05-07T18:36:27.426Z,22.95
2018-05-07T18:41:28.446Z,22.46
2018-05-07T18:46:29.440Z,22.58
2018-05-07T18:51:30.453Z,22.50
2018-05-07T18:56:31.508Z,22.73
2018-05-07T19:01:32.547Z,21.88
2018-05-07T19:06:33.548Z,21.59
2018-05-07T19:11:34.654Z,21.53
2018-05-07T19:16:35.739Z,21.02
2018-05-07T19:21:36.751Z,20.95
2018-05-07T19:26:37.757Z,20.84
2018-05-07T19:31:38.809Z,20.25
2018-05-07T19:36:39.869Z,20.73
2018-05-07T19:41:40.873Z,20.73
2018-05-07T19:46:41.942Z,20.48
2018-05-07T19:51:43.395Z,20.42
2018-05-07T19:56:44.506Z,20.36
2018-05-07T20:01:45.551Z,20.02
2018-05-07T20:06:46.519Z,20.12
2018-05-07T20:11:48.045Z,19.86
2018-05-07T20:16:49.095Z,20.07
2018-05-07T20:21:50.077Z,19.72
2018-05-07T20:26:51.086Z,19.88
2018-05-07T20:31:52.153Z,19.81
2018-05-07T20:36:53.109Z,19.44
2018-05-07T20:41:54.140Z,19.10
2018-05-07T20:46:55.157Z,19.42
